Station Historical Data
Daily Summary for January 3, 2012 Units:  English    Metric   Both
« Previous Day
Next Day »
Daily Weekly Monthly Yearly Custom
  High: Low: Average:
Temperature: 36.6 °F 16.6 °F 26 °F
Dew Point: 17.4 °F 7.1 °F 10.4 °F
Humidity: 75% 31% 52%
Wind Speed: 25.0mph 0.0mph 3.4mph
Wind Gust: 25.0mph - -
Wind- - WSW
Pressure: 30.58 in 30.38 in -
Precipitation: 0.00 in    
Historical Graphs
 
 
Tabular Data for January 3, 2012
Time Temperature Dew Point Pressure Wind Wind Speed Wind Gust Humidity Rainfall Rate (Hourly) Conditions
00:00 26.1 °F 10.0 °F 30.40 in WNW 5.0 mph 11.0 mph 50% 0.00 in
00:01 26.1 °F 10.0 °F 30.40 in NW 2.0 mph 11.0 mph 50% 0.00 in
00:06 26.2 °F 11.0 °F 30.40 in NNW 6.0 mph 10.0 mph 52% 0.00 in
00:11 26.2 °F 11.4 °F 30.40 in NNW 5.0 mph 9.0 mph 53% 0.00 in
00:16 26.2 °F 11.8 °F 30.40 in NNE 7.0 mph 7.0 mph 54% 0.00 in
00:21 26.3 °F 12.8 °F 30.41 in NNW 4.0 mph 12.0 mph 56% 0.00 in
00:26 26.2 °F 13.4 °F 30.41 in North 7.0 mph 15.0 mph 58% 0.00 in
00:31 26.2 °F 13.8 °F 30.41 in NNW 9.0 mph 12.0 mph 59% 0.00 in
00:36 26.1 °F 14.1 °F 30.41 in NNW 4.0 mph 7.0 mph 60% 0.00 in
00:41 26.2 °F 14.2 °F 30.41 in NW 10.0 mph 15.0 mph 60% 0.00 in
00:46 26.1 °F 14.1 °F 30.41 in NW 7.0 mph 11.0 mph 60% 0.00 in
00:51 26.2 °F 14.2 °F 30.41 in NNE 9.0 mph 15.0 mph 60% 0.00 in
00:56 26.2 °F 15.0 °F 30.42 in NNE 14.0 mph 15.0 mph 62% 0.00 in
01:00 26.0 °F 15.5 °F 30.42 in NW 25.0 mph 25.0 mph 64% 0.00 in
01:01 26.0 °F 15.5 °F 30.42 in North 15.0 mph 25.0 mph 64% 0.00 in
01:06 25.8 °F 15.7 °F 30.42 in NW 10.0 mph 19.0 mph 65% 0.00 in
01:11 25.6 °F 15.5 °F 30.42 in NNW 11.0 mph 14.0 mph 65% 0.00 in
01:16 25.4 °F 15.3 °F 30.42 in WNW 9.0 mph 17.0 mph 65% 0.00 in
01:22 25.2 °F 15.4 °F 30.42 in NW 13.0 mph 15.0 mph 66% 0.00 in
01:27 25.2 °F 15.8 °F 30.42 in NW 11.0 mph 13.0 mph 67% 0.00 in
01:30 25.1 °F 16.7 °F 30.42 in NW 12.0 mph 16.0 mph 70% 0.00 in
01:32 25.0 °F 16.6 °F 30.42 in NW 12.0 mph 16.0 mph 70% 0.00 in
01:37 24.9 °F 17.2 °F 30.43 in NW 6.0 mph 11.0 mph 72% 0.00 in
01:39 24.8 °F 17.4 °F 30.43 in NW 14.0 mph 16.0 mph 73% 0.00 in
01:44 24.4 °F 15.0 °F 30.43 in NNW 11.0 mph 17.0 mph 67% 0.00 in
01:49 24.2 °F 14.1 °F 30.44 in NW 8.0 mph 18.0 mph 65% 0.00 in
01:54 24.0 °F 14.0 °F 30.44 in NNW 7.0 mph 16.0 mph 65% 0.00 in
01:59 24.0 °F 13.2 °F 30.44 in NW 18.0 mph 19.0 mph 63% 0.00 in
02:00 24.0 °F 13.2 °F 30.44 in NW 13.0 mph 19.0 mph 63% 0.00 in
02:04 24.0 °F 13.2 °F 30.44 in NNW 14.0 mph 17.0 mph 63% 0.00 in
02:09 24.0 °F 13.2 °F 30.44 in NNW 12.0 mph 18.0 mph 63% 0.00 in
02:14 24.0 °F 13.2 °F 30.44 in NNE 12.0 mph 17.0 mph 63% 0.00 in
02:19 23.9 °F 11.7 °F 30.44 in North 9.0 mph 17.0 mph 59% 0.00 in
02:24 23.7 °F 9.5 °F 30.45 in North 13.0 mph 21.0 mph 54% 0.00 in
02:29 23.5 °F 8.9 °F 30.45 in NNE 9.0 mph 19.0 mph 53% 0.00 in
02:30 23.5 °F 8.9 °F 30.45 in NNW 7.0 mph 13.0 mph 53% 0.00 in
02:34 23.3 °F 8.3 °F 30.45 in NNW 9.0 mph 21.0 mph 52% 0.00 in
02:39 23.1 °F 8.1 °F 30.45 in NNW 9.0 mph 16.0 mph 52% 0.00 in
02:44 22.9 °F 7.9 °F 30.46 in NNW 8.0 mph 18.0 mph 52% 0.00 in
02:49 22.6 °F 8.1 °F 30.46 in NW 7.0 mph 13.0 mph 53% 0.00 in
02:54 22.4 °F 7.9 °F 30.46 in NNE 11.0 mph 14.0 mph 53% 0.00 in
02:59 22.3 °F 8.2 °F 30.46 in NW 5.0 mph 14.0 mph 54% 0.00 in
03:00 22.2 °F 8.1 °F 30.46 in NNW 5.0 mph 13.0 mph 54% 0.00 in
03:05 22.0 °F 7.9 °F 30.46 in NNW 8.0 mph 13.0 mph 54% 0.00 in
03:10 21.9 °F 7.8 °F 30.46 in North 13.0 mph 13.0 mph 54% 0.00 in
03:15 21.8 °F 7.7 °F 30.47 in NW 9.0 mph 15.0 mph 54% 0.00 in
03:20 21.8 °F 7.3 °F 30.47 in NNW 10.0 mph 19.0 mph 53% 0.00 in
03:25 21.7 °F 7.2 °F 30.47 in NW 6.0 mph 12.0 mph 53% 0.00 in
03:30 21.6 °F 7.1 °F 30.47 in NNW 11.0 mph 14.0 mph 53% 0.00 in
03:35 21.5 °F 7.4 °F 30.47 in NW 6.0 mph 10.0 mph 54% 0.00 in
03:40 21.3 °F 7.3 °F 30.48 in NNW 5.0 mph 9.0 mph 54% 0.00 in
03:45 21.1 °F 7.1 °F 30.48 in NNW 5.0 mph 9.0 mph 54% 0.00 in
03:50 20.9 °F 7.7 °F 30.48 in NE 4.0 mph 5.0 mph 56% 0.00 in
03:55 20.8 °F 7.6 °F 30.47 in NNW 4.0 mph 12.0 mph 56% 0.00 in
04:00 20.8 °F 7.6 °F 30.47 in NNW 4.0 mph 9.0 mph 56% 0.00 in
04:05 20.6 °F 7.8 °F 30.47 in NNW 5.0 mph 9.0 mph 57% 0.00 in
04:10 20.4 °F 7.6 °F 30.47 in NNW 3.0 mph 5.0 mph 57% 0.00 in
04:15 20.3 °F 7.5 °F 30.48 in NNW 6.0 mph 7.0 mph 57% 0.00 in
04:20 20.2 °F 7.8 °F 30.48 in NNW 4.0 mph 8.0 mph 58% 0.00 in
04:25 20.1 °F 8.1 °F 30.48 in North 4.0 mph 5.0 mph 59% 0.00 in
04:30 20.1 °F 7.7 °F 30.48 in North 6.0 mph 8.0 mph 58% 0.00 in
04:35 20.1 °F 8.1 °F 30.48 in NNW 5.0 mph 6.0 mph 59% 0.00 in
04:41 20.0 °F 8.0 °F 30.48 in NNW 4.0 mph 6.0 mph 59% 0.00 in
04:46 19.8 °F 8.2 °F 30.48 in NNW 3.0 mph 5.0 mph 60% 0.00 in
04:51 19.7 °F 8.1 °F 30.48 in NW 4.0 mph 5.0 mph 60% 0.00 in
04:56 19.6 °F 8.4 °F 30.48 in NNW 2.0 mph 6.0 mph 61% 0.00 in
05:00 19.4 °F 8.2 °F 30.48 in NNW 2.0 mph 4.0 mph 61% 0.00 in
05:01 19.4 °F 8.2 °F 30.48 in NW 2.0 mph 4.0 mph 61% 0.00 in
05:06 19.4 °F 8.5 °F 30.48 in NW 1.0 mph 3.0 mph 62% 0.00 in
05:11 19.2 °F 8.3 °F 30.49 in NNW 2.0 mph 4.0 mph 62% 0.00 in
05:16 19.1 °F 8.2 °F 30.49 in NNW 4.0 mph 4.0 mph 62% 0.00 in
05:21 19.2 °F 8.3 °F 30.49 in NW 2.0 mph 3.0 mph 62% 0.00 in
05:26 19.1 °F 8.2 °F 30.50 in NNW 2.0 mph 4.0 mph 62% 0.00 in
05:30 19.1 °F 8.2 °F 30.50 in NNW 2.0 mph 3.0 mph 62% 0.00 in
05:31 19.1 °F 8.6 °F 30.50 in NNW 3.0 mph 3.0 mph 63% 0.00 in
05:36 19.1 °F 8.2 °F 30.50 in NNW 2.0 mph 4.0 mph 62% 0.00 in
05:41 19.0 °F 8.5 °F 30.50 in NW 2.0 mph 2.0 mph 63% 0.00 in
05:46 18.9 °F 8.4 °F 30.50 in NW 1.0 mph 3.0 mph 63% 0.00 in
05:51 18.8 °F 8.6 °F 30.50 in NW 1.0 mph 3.0 mph 64% 0.00 in
05:56 18.7 °F 8.6 °F 30.50 in NNW 2.0 mph 2.0 mph 64% 0.00 in
06:00 18.7 °F 8.6 °F 30.50 in NNW 2.0 mph 2.0 mph 64% 0.00 in
06:01 18.6 °F 8.5 °F 30.50 in NNW 2.0 mph 2.0 mph 64% 0.00 in
06:06 18.7 °F 8.6 °F 30.50 in NW 2.0 mph 3.0 mph 64% 0.00 in
06:11 18.4 °F 8.6 °F 30.50 in NW 1.0 mph 2.0 mph 65% 0.00 in
06:16 18.1 °F 9.0 °F 30.51 in NW 1.0 mph 2.0 mph 67% 0.00 in
06:21 18.1 °F 8.7 °F 30.51 in NW 1.0 mph 2.0 mph 66% 0.00 in
06:26 18.2 °F 9.1 °F 30.51 in NW 1.0 mph 1.0 mph 67% 0.00 in
06:30 18.1 °F 8.7 °F 30.51 in NW 1.0 mph 2.0 mph 66% 0.00 in
06:31 18.1 °F 8.7 °F 30.51 in NW 1.0 mph 2.0 mph 66% 0.00 in
06:36 18.1 °F 8.7 °F 30.51 in Calm   1.0 mph 66% 0.00 in
06:41 18.1 °F 9.0 °F 30.51 in Calm     67% 0.00 in
06:46 17.7 °F 8.6 °F 30.52 in Calm     67% 0.00 in
06:51 17.5 °F 8.4 °F 30.52 in Calm     67% 0.00 in
06:56 17.3 °F 8.2 °F 30.52 in Calm     67% 0.00 in
07:00 17.3 °F 8.6 °F 30.52 in Calm   1.0 mph 68% 0.00 in
07:01 17.3 °F 8.6 °F 30.52 in Calm   1.0 mph 68% 0.00 in
07:06 17.1 °F 8.7 °F 30.52 in Calm   1.0 mph 69% 0.00 in
07:11 17.1 °F 8.7 °F 30.52 in Calm   1.0 mph 69% 0.00 in
07:16 17.2 °F 9.1 °F 30.52 in Calm   1.0 mph 70% 0.00 in
07:21 17.0 °F 9.9 °F 30.53 in Calm     73% 0.00 in
07:26 16.8 °F 9.4 °F 30.53 in Calm     72% 0.00 in
07:30 16.6 °F 8.9 °F 30.53 in Calm     71% 0.00 in
07:31 16.6 °F 8.9 °F 30.53 in Calm     71% 0.00 in
07:36 16.7 °F 8.9 °F 30.53 in Calm   1.0 mph 71% 0.00 in
07:41 16.8 °F 8.7 °F 30.53 in Calm   1.0 mph 70% 0.00 in
07:46 16.8 °F 8.7 °F 30.53 in Calm     70% 0.00 in
07:51 16.8 °F 8.7 °F 30.53 in West 1.0 mph 1.0 mph 70% 0.00 in
07:56 16.8 °F 8.7 °F 30.53 in West 1.0 mph 1.0 mph 70% 0.00 in
08:00 16.8 °F 8.7 °F 30.54 in West 1.0 mph 1.0 mph 70% 0.00 in
08:01 16.8 °F 8.7 °F 30.54 in West 1.0 mph 1.0 mph 70% 0.00 in
08:06 16.8 °F 8.7 °F 30.54 in West 1.0 mph 1.0 mph 70% 0.00 in
08:11 17.0 °F 9.2 °F 30.53 in Calm   1.0 mph 71% 0.00 in
08:16 17.1 °F 10.3 °F 30.53 in Calm     74% 0.00 in
08:21 17.1 °F 10.6 °F 30.53 in Calm     75% 0.00 in
08:26 17.2 °F 10.6 °F 30.54 in Calm     75% 0.00 in
08:30 17.4 °F 10.6 °F 30.54 in West 1.0 mph 1.0 mph 74% 0.00 in
08:31 17.4 °F 10.6 °F 30.54 in West 1.0 mph 2.0 mph 74% 0.00 in
08:36 17.8 °F 10.0 °F 30.54 in Calm   1.0 mph 71% 0.00 in
08:38 18.0 °F 10.2 °F 30.54 in Calm   1.0 mph 71% 0.00 in
08:43 18.4 °F 10.3 °F 30.55 in West 1.0 mph 3.0 mph 70% 0.00 in
08:48 18.9 °F 11.4 °F 30.55 in West 2.0 mph 3.0 mph 72% 0.00 in
08:53 19.3 °F 10.8 °F 30.55 in West 1.0 mph 3.0 mph 69% 0.00 in
08:58 19.6 °F 11.1 °F 30.55 in West 1.0 mph 3.0 mph 69% 0.00 in
09:00 19.8 °F 11.3 °F 30.56 in West 2.0 mph 3.0 mph 69% 0.00 in
09:03 19.9 °F 11.4 °F 30.56 in WNW 3.0 mph 4.0 mph 69% 0.00 in
09:08 20.2 °F 11.0 °F 30.56 in West 4.0 mph 5.0 mph 67% 0.00 in
09:13 20.5 °F 11.3 °F 30.56 in West 3.0 mph 4.0 mph 67% 0.00 in
09:19 20.8 °F 11.2 °F 30.56 in West 3.0 mph 7.0 mph 66% 0.00 in
09:24 21.2 °F 11.6 °F 30.56 in West 1.0 mph 4.0 mph 66% 0.00 in
09:29 21.6 °F 12.0 °F 30.56 in WNW 2.0 mph 4.0 mph 66% 0.00 in
09:30 21.9 °F 11.9 °F 30.56 in WNW 2.0 mph 4.0 mph 65% 0.00 in
09:34 22.2 °F 12.2 °F 30.56 in WNW 4.0 mph 4.0 mph 65% 0.00 in
09:39 22.4 °F 11.4 °F 30.57 in West 6.0 mph 6.0 mph 62% 0.00 in
09:44 22.8 °F 11.4 °F 30.57 in WNW 2.0 mph 6.0 mph 61% 0.00 in
09:49 23.2 °F 12.1 °F 30.58 in NW 2.0 mph 4.0 mph 62% 0.00 in
09:54 23.4 °F 11.6 °F 30.57 in NW 6.0 mph 6.0 mph 60% 0.00 in
09:59 23.6 °F 11.8 °F 30.58 in NW 8.0 mph 8.0 mph 60% 0.00 in
10:00 23.6 °F 11.4 °F 30.58 in NW 4.0 mph 8.0 mph 59% 0.00 in
10:04 23.7 °F 11.5 °F 30.58 in WNW 3.0 mph 6.0 mph 59% 0.00 in
10:09 24.0 °F 12.1 °F 30.58 in NNW 3.0 mph 5.0 mph 60% 0.00 in
10:14 24.3 °F 12.4 °F 30.58 in West 4.0 mph 5.0 mph 60% 0.00 in
10:19 24.5 °F 11.9 °F 30.58 in NNE 3.0 mph 9.0 mph 58% 0.00 in
10:24 24.6 °F 11.9 °F 30.58 in WNW 5.0 mph 7.0 mph 58% 0.00 in
10:29 24.6 °F 11.6 °F 30.58 in WNW 4.0 mph 7.0 mph 57% 0.00 in
10:30 24.5 °F 11.9 °F 30.58 in WNW 4.0 mph 6.0 mph 58% 0.00 in
10:34 24.8 °F 12.1 °F 30.58 in NW 9.0 mph 9.0 mph 58% 0.00 in
10:39 25.1 °F 12.0 °F 30.58 in NNW 6.0 mph 10.0 mph 57% 0.00 in
10:44 25.2 °F 12.1 °F 30.58 in WNW 5.0 mph 9.0 mph 57% 0.00 in
10:49 25.4 °F 12.3 °F 30.58 in NW 5.0 mph 9.0 mph 57% 0.00 in
10:54 25.7 °F 12.2 °F 30.58 in WNW 7.0 mph 10.0 mph 56% 0.00 in
10:59 25.7 °F 12.2 °F 30.58 in WNW 4.0 mph 9.0 mph 56% 0.00 in
11:00 25.8 °F 12.3 °F 30.58 in NNW 6.0 mph 9.0 mph 56% 0.00 in
11:04 25.9 °F 12.4 °F 30.57 in North 4.0 mph 9.0 mph 56% 0.00 in
11:09 26.1 °F 12.2 °F 30.57 in WNW 7.0 mph 9.0 mph 55% 0.00 in
11:14 26.1 °F 12.6 °F 30.57 in NNW 5.0 mph 6.0 mph 56% 0.00 in
11:19 26.3 °F 12.3 °F 30.57 in NW 3.0 mph 7.0 mph 55% 0.00 in
11:24 26.9 °F 12.1 °F 30.57 in West 4.0 mph 10.0 mph 53% 0.00 in
11:29 27.3 °F 12.9 °F 30.57 in NW 7.0 mph 8.0 mph 54% 0.00 in
11:30 27.3 °F 12.4 °F 30.57 in North 10.0 mph 11.0 mph 53% 0.00 in
11:34 27.1 °F 11.8 °F 30.57 in WNW 6.0 mph 10.0 mph 52% 0.00 in
11:39 27.2 °F 11.9 °F 30.57 in NW 4.0 mph 10.0 mph 52% 0.00 in
11:44 27.3 °F 12.0 °F 30.57 in NNW 3.0 mph 9.0 mph 52% 0.00 in
11:50 27.7 °F 12.8 °F 30.56 in NW 6.0 mph 7.0 mph 53% 0.00 in
11:55 27.9 °F 13.0 °F 30.56 in NNW 5.0 mph 7.0 mph 53% 0.00 in
12:00 28.2 °F 12.9 °F 30.55 in North 7.0 mph 7.0 mph 52% 0.00 in
12:05 28.4 °F 12.6 °F 30.55 in North 4.0 mph 10.0 mph 51% 0.00 in
12:10 28.5 °F 12.2 °F 30.55 in North 1.0 mph 6.0 mph 50% 0.00 in
12:15 28.6 °F 12.3 °F 30.54 in NW 6.0 mph 11.0 mph 50% 0.00 in
12:20 28.2 °F 12.0 °F 30.54 in WSW 3.0 mph 6.0 mph 50% 0.00 in
12:25 28.6 °F 12.8 °F 30.53 in SSE 2.0 mph 6.0 mph 51% 0.00 in
12:30 29.2 °F 13.3 °F 30.53 in NW 4.0 mph 4.0 mph 51% 0.00 in
12:35 29.4 °F 11.7 °F 30.53 in WNW 6.0 mph 7.0 mph 47% 0.00 in
12:40 29.6 °F 12.8 °F 30.52 in NNW 3.0 mph 5.0 mph 49% 0.00 in
12:45 30.0 °F 12.7 °F 30.52 in NNW 2.0 mph 6.0 mph 48% 0.00 in
12:50 30.2 °F 13.4 °F 30.51 in NW 6.0 mph 10.0 mph 49% 0.00 in
12:55 30.2 °F 11.9 °F 30.51 in SSW 5.0 mph 7.0 mph 46% 0.00 in
13:00 30.3 °F 12.0 °F 30.51 in NW 5.0 mph 7.0 mph 46% 0.00 in
13:05 30.5 °F 13.2 °F 30.50 in SSW 5.0 mph 9.0 mph 48% 0.00 in
13:10 30.8 °F 13.4 °F 30.50 in WSW 4.0 mph 10.0 mph 48% 0.00 in
13:15 30.7 °F 12.4 °F 30.50 in WNW 3.0 mph 9.0 mph 46% 0.00 in
13:20 31.0 °F 12.7 °F 30.50 in WNW 7.0 mph 7.0 mph 46% 0.00 in
13:25 31.4 °F 12.0 °F 30.50 in West 3.0 mph 5.0 mph 44% 0.00 in
13:30 31.3 °F 11.4 °F 30.50 in NNW 2.0 mph 8.0 mph 43% 0.00 in
13:35 31.5 °F 12.1 °F 30.50 in West 5.0 mph 7.0 mph 44% 0.00 in
13:36 31.5 °F 12.1 °F 30.50 in WNW 4.0 mph 7.0 mph 44% 0.00 in
13:41 31.9 °F 12.5 °F 30.50 in WNW 4.0 mph 9.0 mph 44% 0.00 in
13:46 32.0 °F 12.1 °F 30.49 in West 3.0 mph 7.0 mph 43% 0.00 in
13:51 32.1 °F 11.6 °F 30.49 in West 4.0 mph 8.0 mph 42% 0.00 in
13:56 32.0 °F 11.5 °F 30.48 in SW 4.0 mph 7.0 mph 42% 0.00 in
14:00 32.2 °F 12.2 °F 30.48 in WSW 6.0 mph 6.0 mph 43% 0.00 in
14:01 32.3 °F 12.3 °F 30.48 in WSW 5.0 mph 6.0 mph 43% 0.00 in
14:06 32.5 °F 11.4 °F 30.48 in WSW 7.0 mph 8.0 mph 41% 0.00 in
14:11 32.6 °F 12.1 °F 30.48 in West 4.0 mph 10.0 mph 42% 0.00 in
14:16 32.7 °F 11.1 °F 30.48 in West 6.0 mph 11.0 mph 40% 0.00 in
14:21 32.8 °F 11.1 °F 30.49 in WSW 5.0 mph 8.0 mph 40% 0.00 in
14:26 33.1 °F 10.9 °F 30.48 in Calm   7.0 mph 39% 0.00 in
14:30 33.5 °F 11.2 °F 30.48 in West 3.0 mph 5.0 mph 39% 0.00 in
14:31 33.6 °F 11.3 °F 30.48 in WSW 6.0 mph 6.0 mph 39% 0.00 in
14:36 33.6 °F 11.3 °F 30.48 in West 4.0 mph 9.0 mph 39% 0.00 in
14:41 33.6 °F 10.7 °F 30.48 in WSW 5.0 mph 6.0 mph 38% 0.00 in
14:46 33.9 °F 11.6 °F 30.48 in WNW 2.0 mph 6.0 mph 39% 0.00 in
14:51 34.1 °F 11.2 °F 30.47 in West 5.0 mph 9.0 mph 38% 0.00 in
14:56 33.8 °F 10.9 °F 30.47 in NW 4.0 mph 7.0 mph 38% 0.00 in
15:00 33.9 °F 11.6 °F 30.47 in SSW 5.0 mph 5.0 mph 39% 0.00 in
15:01 33.9 °F 11.6 °F 30.47 in SSW 5.0 mph 5.0 mph 39% 0.00 in
15:06 33.7 °F 10.8 °F 30.47 in Calm   3.0 mph 38% 0.00 in
15:11 34.0 °F 10.5 °F 30.47 in WNW 5.0 mph 10.0 mph 37% 0.00 in
15:16 34.1 °F 10.6 °F 30.47 in WSW 1.0 mph 6.0 mph 37% 0.00 in
15:21 34.6 °F 10.4 °F 30.47 in WNW 3.0 mph 8.0 mph 36% 0.00 in
15:26 35.1 °F 11.5 °F 30.47 in NNW 4.0 mph 8.0 mph 37% 0.00 in
15:30 34.8 °F 11.2 °F 30.47 in NNE 6.0 mph 8.0 mph 37% 0.00 in
15:31 34.8 °F 11.2 °F 30.47 in West 1.0 mph 8.0 mph 37% 0.00 in
15:37 35.0 °F 8.8 °F 30.47 in WNW 4.0 mph 8.0 mph 33% 0.00 in
15:42 34.9 °F 8.7 °F 30.47 in WNW 6.0 mph 10.0 mph 33% 0.00 in
15:47 34.9 °F 9.4 °F 30.47 in WNW 3.0 mph 4.0 mph 34% 0.00 in
15:52 35.2 °F 10.3 °F 30.47 in WNW 1.0 mph 3.0 mph 35% 0.00 in
15:57 35.3 °F 9.8 °F 30.47 in WNW 4.0 mph 7.0 mph 34% 0.00 in
16:00 35.3 °F 9.8 °F 30.47 in West 1.0 mph 4.0 mph 34% 0.00 in
16:02 35.5 °F 9.9 °F 30.47 in West 2.0 mph 4.0 mph 34% 0.00 in
16:07 35.6 °F 10.0 °F 30.46 in NW 1.0 mph 3.0 mph 34% 0.00 in
16:12 35.8 °F 9.5 °F 30.46 in WNW 5.0 mph 5.0 mph 33% 0.00 in
16:17 35.9 °F 9.6 °F 30.47 in WSW 1.0 mph 6.0 mph 33% 0.00 in
16:22 36.2 °F 10.6 °F 30.46 in Calm   2.0 mph 34% 0.00 in
16:27 36.6 °F 9.6 °F 30.46 in NW 1.0 mph 4.0 mph 32% 0.00 in
16:30 36.4 °F 10.1 °F 30.46 in NNE 3.0 mph 3.0 mph 33% 0.00 in
16:32 36.4 °F 9.4 °F 30.46 in East 3.0 mph 4.0 mph 32% 0.00 in
16:37 36.3 °F 10.0 °F 30.46 in West 2.0 mph 2.0 mph 33% 0.00 in
16:42 36.5 °F 8.8 °F 30.46 in SSW 2.0 mph 4.0 mph 31% 0.00 in
16:47 36.2 °F 9.2 °F 30.45 in SW 3.0 mph 4.0 mph 32% 0.00 in
16:52 36.3 °F 9.3 °F 30.45 in NW 2.0 mph 3.0 mph 32% 0.00 in
16:57 35.8 °F 8.8 °F 30.45 in West 1.0 mph 5.0 mph 32% 0.00 in
17:00 35.7 °F 8.1 °F 30.45 in West 3.0 mph 4.0 mph 31% 0.00 in
17:02 35.6 °F 8.0 °F 30.45 in WSW 3.0 mph 4.0 mph 31% 0.00 in
17:07 35.5 °F 8.6 °F 30.44 in West 3.0 mph 3.0 mph 32% 0.00 in
17:12 35.3 °F 11.0 °F 30.45 in SW 2.0 mph 4.0 mph 36% 0.00 in
17:17 35.2 °F 10.9 °F 30.44 in SW 4.0 mph 4.0 mph 36% 0.00 in
17:22 35.1 °F 8.9 °F 30.44 in SW 1.0 mph 2.0 mph 33% 0.00 in
17:27 35.2 °F 10.9 °F 30.44 in Calm   1.0 mph 36% 0.00 in
17:30 35.3 °F 11.0 °F 30.44 in Calm     36% 0.00 in
17:32 35.4 °F 10.5 °F 30.44 in Calm     35% 0.00 in
17:37 35.0 °F 9.5 °F 30.43 in WSW 2.0 mph 3.0 mph 34% 0.00 in
17:42 34.1 °F 9.3 °F 30.43 in SW 2.0 mph 2.0 mph 35% 0.00 in
17:47 33.5 °F 9.4 °F 30.43 in WSW 1.0 mph 2.0 mph 36% 0.00 in
17:52 33.0 °F 9.6 °F 30.43 in Calm   2.0 mph 37% 0.00 in
17:57 32.4 °F 10.8 °F 30.43 in Calm   1.0 mph 40% 0.00 in
18:00 32.0 °F 9.9 °F 30.43 in Calm     39% 0.00 in
18:02 31.9 °F 9.8 °F 30.43 in Calm     39% 0.00 in
18:07 31.6 °F 11.2 °F 30.43 in Calm     42% 0.00 in
18:12 31.2 °F 10.2 °F 30.43 in Calm     41% 0.00 in
18:17 30.8 °F 10.4 °F 30.43 in Calm     42% 0.00 in
18:22 30.5 °F 9.6 °F 30.43 in WSW 1.0 mph 1.0 mph 41% 0.00 in
18:27 30.4 °F 9.5 °F 30.44 in Calm   1.0 mph 41% 0.00 in
18:30 30.1 °F 8.1 °F 30.44 in Calm   1.0 mph 39% 0.00 in
18:32 30.1 °F 8.1 °F 30.44 in Calm   1.0 mph 39% 0.00 in
18:37 30.1 °F 8.1 °F 30.44 in Calm     39% 0.00 in
18:42 29.8 °F 8.4 °F 30.44 in Calm     40% 0.00 in
18:47 29.4 °F 8.1 °F 30.44 in Calm     40% 0.00 in
18:53 28.7 °F 8.0 °F 30.44 in Calm     41% 0.00 in
18:58 28.1 °F 8.0 °F 30.44 in Calm     42% 0.00 in
19:00 27.9 °F 7.8 °F 30.44 in Calm     42% 0.00 in
19:03 27.9 °F 7.8 °F 30.44 in Calm     42% 0.00 in
19:08 27.4 °F 7.3 °F 30.44 in Calm     42% 0.00 in
19:13 26.9 °F 7.4 °F 30.44 in Calm     43% 0.00 in
19:18 27.0 °F 8.5 °F 30.44 in Calm     45% 0.00 in
19:26 27.3 °F 9.3 °F 30.43 in Calm     46% 0.00 in
19:31 27.6 °F 8.6 °F 30.43 in Calm     44% 0.00 in
19:36 27.8 °F 8.7 °F 30.43 in Calm     44% 0.00 in
19:41 27.8 °F 9.2 °F 30.43 in SSE 1.0 mph 2.0 mph 45% 0.00 in
19:46 27.5 °F 9.0 °F 30.43 in Calm     45% 0.00 in
19:51 27.4 °F 8.9 °F 30.42 in SSE 1.0 mph 1.0 mph 45% 0.00 in
19:56 27.5 °F 9.0 °F 30.42 in SSE 2.0 mph 2.0 mph 45% 0.00 in
20:01 27.8 °F 9.2 °F 30.42 in SE 1.0 mph 2.0 mph 45% 0.00 in
20:06 28.1 °F 8.5 °F 30.42 in SE 1.0 mph 1.0 mph 43% 0.00 in
20:11 28.1 °F 9.0 °F 30.41 in SE 1.0 mph 2.0 mph 44% 0.00 in
20:16 28.1 °F 9.0 °F 30.41 in SE 1.0 mph 1.0 mph 44% 0.00 in
20:21 28.2 °F 9.1 °F 30.41 in SE 1.0 mph 1.0 mph 44% 0.00 in
20:26 28.1 °F 9.5 °F 30.41 in SE 1.0 mph 1.0 mph 45% 0.00 in
20:31 27.8 °F 9.2 °F 30.42 in SE 1.0 mph 1.0 mph 45% 0.00 in
20:36 27.6 °F 9.5 °F 30.42 in SE 1.0 mph 1.0 mph 46% 0.00 in
20:41 27.4 °F 9.4 °F 30.42 in Calm   1.0 mph 46% 0.00 in
20:46 27.3 °F 9.7 °F 30.42 in SE 1.0 mph 1.0 mph 47% 0.00 in
20:51 27.1 °F 10.0 °F 30.42 in SE 1.0 mph 1.0 mph 48% 0.00 in
20:56 26.9 °F 9.4 °F 30.42 in SE 1.0 mph 1.0 mph 47% 0.00 in
21:01 26.9 °F 9.4 °F 30.42 in Calm   1.0 mph 47% 0.00 in
21:06 26.9 °F 9.4 °F 30.41 in Calm   1.0 mph 47% 0.00 in
21:11 26.7 °F 9.2 °F 30.41 in Calm     47% 0.00 in
21:16 26.3 °F 8.8 °F 30.41 in Calm     47% 0.00 in
21:21 25.9 °F 8.5 °F 30.42 in Calm     47% 0.00 in
21:26 25.3 °F 8.8 °F 30.41 in Calm     49% 0.00 in
21:31 25.0 °F 8.6 °F 30.41 in Calm     49% 0.00 in
21:36 25.5 °F 8.6 °F 30.41 in Calm     48% 0.00 in
21:41 26.0 °F 8.1 °F 30.41 in Calm     46% 0.00 in
21:47 26.3 °F 8.4 °F 30.41 in SSE 1.0 mph 1.0 mph 46% 0.00 in
21:52 26.6 °F 8.6 °F 30.40 in SE 1.0 mph 2.0 mph 46% 0.00 in
21:57 26.7 °F 9.7 °F 30.40 in SE 1.0 mph 2.0 mph 48% 0.00 in
22:02 26.8 °F 8.8 °F 30.40 in SE 1.0 mph 1.0 mph 46% 0.00 in
22:07 27.1 °F 9.1 °F 30.40 in SE 1.0 mph 2.0 mph 46% 0.00 in
22:12 27.3 °F 9.3 °F 30.39 in SE 1.0 mph 2.0 mph 46% 0.00 in
22:17 27.3 °F 8.8 °F 30.40 in SE 1.0 mph 1.0 mph 45% 0.00 in
22:22 27.3 °F 8.8 °F 30.40 in SE 1.0 mph 1.0 mph 45% 0.00 in
22:27 27.2 °F 9.2 °F 30.40 in SE 1.0 mph 1.0 mph 46% 0.00 in
22:32 27.2 °F 9.2 °F 30.40 in ESE 1.0 mph 1.0 mph 46% 0.00 in
22:37 27.4 °F 8.9 °F 30.39 in ESE 1.0 mph 1.0 mph 45% 0.00 in
22:42 27.4 °F 8.9 °F 30.39 in ESE 1.0 mph 1.0 mph 45% 0.00 in
22:47 27.4 °F 9.4 °F 30.39 in Calm   1.0 mph 46% 0.00 in
22:52 27.0 °F 9.5 °F 30.39 in ESE 1.0 mph 1.0 mph 47% 0.00 in
22:57 26.6 °F 9.1 °F 30.39 in East 2.0 mph 2.0 mph 47% 0.00 in
23:02 25.9 °F 10.3 °F 30.39 in Calm   2.0 mph 51% 0.00 in
23:07 25.5 °F 9.9 °F 30.39 in SE 1.0 mph 1.0 mph 51% 0.00 in
23:12 25.7 °F 9.6 °F 30.39 in SE 1.0 mph 2.0 mph 50% 0.00 in
23:17 25.6 °F 10.4 °F 30.39 in SE 1.0 mph 1.0 mph 52% 0.00 in
23:22 25.3 °F 11.0 °F 30.39 in SE 1.0 mph 1.0 mph 54% 0.00 in
23:27 24.8 °F 11.3 °F 30.39 in SE 2.0 mph 2.0 mph 56% 0.00 in
23:32 24.6 °F 10.8 °F 30.39 in SE 2.0 mph 3.0 mph 55% 0.00 in
23:37 25.0 °F 10.7 °F 30.39 in SE 2.0 mph 3.0 mph 54% 0.00 in
23:42 24.9 °F 11.0 °F 30.39 in SE 2.0 mph 2.0 mph 55% 0.00 in
23:47 24.9 °F 11.4 °F 30.38 in SE 2.0 mph 3.0 mph 56% 0.00 in
23:52 25.0 °F 11.9 °F 30.38 in ESE 4.0 mph 4.0 mph 57% 0.00 in
23:57 25.4 °F 12.7 °F 30.38 in SE 3.0 mph 4.0 mph 58% 0.00 in
Compliments of Weather Underground